sensor_id;sensor_type;location;lat;lon;timestamp;pressure;altitude;pressure_sealevel;temperature;humidity
65557;BME280;52200;53.490;14.376;2023-02-02T00:01:32;100054.09;;;3.40;96.91
65557;BME280;52200;53.490;14.376;2023-02-02T00:03:58;100051.59;;;3.40;96.55
65557;BME280;52200;53.490;14.376;2023-02-02T00:06:25;100066.72;;;3.35;97.27
65557;BME280;52200;53.490;14.376;2023-02-02T00:08:51;100064.13;;;3.43;97.42
65557;BME280;52200;53.490;14.376;2023-02-02T00:11:17;100049.84;;;3.50;97.04
65557;BME280;52200;53.490;14.376;2023-02-02T00:13:43;100042.34;;;3.45;97.32
65557;BME280;52200;53.490;14.376;2023-02-02T00:18:57;100035.63;;;3.50;98.06
65557;BME280;52200;53.490;14.376;2023-02-02T00:21:24;100023.84;;;3.52;98.35
65557;BME280;52200;53.490;14.376;2023-02-02T00:23:50;100016.41;;;3.48;98.83
65557;BME280;52200;53.490;14.376;2023-02-02T00:26:15;100025.56;;;3.50;98.57
65557;BME280;52200;53.490;14.376;2023-02-02T00:28:41;100023.91;;;3.49;99.10
65557;BME280;52200;53.490;14.376;2023-02-02T00:31:06;100017.06;;;3.64;99.24
65557;BME280;52200;53.490;14.376;2023-02-02T00:33:32;100012.09;;;3.58;99.20
65557;BME280;52200;53.490;14.376;2023-02-02T00:35:57;100028.00;;;3.58;98.96
65557;BME280;52200;53.490;14.376;2023-02-02T00:38:22;100027.16;;;3.58;99.65
65557;BME280;52200;53.490;14.376;2023-02-02T00:40:48;100029.69;;;3.56;98.86
65557;BME280;52200;53.490;14.376;2023-02-02T00:43:13;100032.22;;;3.54;99.83
65557;BME280;52200;53.490;14.376;2023-02-02T00:45:39;100051.53;;;3.49;100.00
65557;BME280;52200;53.490;14.376;2023-02-02T00:48:04;100044.00;;;3.49;100.00
65557;BME280;52200;53.490;14.376;2023-02-02T00:50:31;100040.66;;;3.47;100.00
65557;BME280;52200;53.490;14.376;2023-02-02T00:52:57;100057.44;;;3.39;100.00
65557;BME280;52200;53.490;14.376;2023-02-02T00:55:23;100062.47;;;3.42;100.00
65557;BME280;52200;53.490;14.376;2023-02-02T00:57:49;100070.81;;;3.41;100.00
65557;BME280;52200;53.490;14.376;2023-02-02T01:00:16;100062.47;;;3.41;100.00
65557;BME280;52200;53.490;14.376;2023-02-02T01:02:42;100064.19;;;3.37;100.00
65557;BME280;52200;53.490;14.376;2023-02-02T01:05:08;100058.34;;;3.30;100.00
65557;BME280;52200;53.490;14.376;2023-02-02T01:07:34;100065.84;;;3.38;100.00
65557;BME280;52200;53.490;14.376;2023-02-02T01:10:00;100073.41;;;3.30;100.00
65557;BME280;52200;53.490;14.376;2023-02-02T01:12:25;100063.38;;;3.33;100.00
65557;BME280;52200;53.490;14.376;2023-02-02T01:14:50;100064.19;;;3.34;100.00
65557;BME280;52200;53.490;14.376;2023-02-02T01:17:16;100074.25;;;3.31;100.00
65557;BME280;52200;53.490;14.376;2023-02-02T01:19:41;100082.59;;;3.36;100.00
65557;BME280;52200;53.490;14.376;2023-02-02T01:22:07;100085.97;;;3.29;100.00
65557;BME280;52200;53.490;14.376;2023-02-02T01:24:33;100096.91;;;3.25;100.00
65557;BME280;52200;53.490;14.376;2023-02-02T01:26:58;100082.63;;;3.27;100.00
65557;BME280;52200;53.490;14.376;2023-02-02T01:29:24;100098.56;;;3.27;100.00
65557;BME280;52200;53.490;14.376;2023-02-02T01:31:49;100107.75;;;3.27;100.00
65557;BME280;52200;53.490;14.376;2023-02-02T01:34:15;100107.75;;;3.27;100.00
65557;BME280;52200;53.490;14.376;2023-02-02T01:36:40;100110.25;;;3.27;100.00
65557;BME280;52200;53.490;14.376;2023-02-02T01:39:05;100129.50;;;3.29;100.00
65557;BME280;52200;53.490;14.376;2023-02-02T01:41:31;100111.13;;;3.26;100.00
65557;BME280;52200;53.490;14.376;2023-02-02T01:44:02;100119.44;;;3.28;100.00
65557;BME280;52200;53.490;14.376;2023-02-02T01:46:32;100113.63;;;3.27;100.00
65557;BME280;52200;53.490;14.376;2023-02-02T01:49:05;100139.53;;;3.28;100.00
65557;BME280;52200;53.490;14.376;2023-02-02T01:51:40;100147.06;;;3.28;100.00
65557;BME280;52200;53.490;14.376;2023-02-02T01:54:12;100147.91;;;3.30;100.00
65557;BME280;52200;53.490;14.376;2023-02-02T01:56:46;100161.31;;;3.26;100.00
65557;BME280;52200;53.490;14.376;2023-02-02T01:59:15;100168.84;;;3.27;100.00
65557;BME280;52200;53.490;14.376;2023-02-02T02:01:42;100169.69;;;3.25;100.00
65557;BME280;52200;53.490;14.376;2023-02-02T02:04:09;100177.19;;;3.26;100.00
65557;BME280;52200;53.490;14.376;2023-02-02T02:06:36;100184.75;;;3.21;100.00
65557;BME280;52200;53.490;14.376;2023-02-02T02:09:03;100193.97;;;3.19;100.00
65557;BME280;52200;53.490;14.376;2023-02-02T02:11:30;100197.31;;;3.18;100.00
65557;BME280;52200;53.490;14.376;2023-02-02T02:13:59;100204.88;;;3.17;100.00
65557;BME280;52200;53.490;14.376;2023-02-02T02:25:38;100235.81;;;3.13;100.00
65557;BME280;52200;53.490;14.376;2023-02-02T02:34:34;100270.97;;;3.06;100.00
65557;BME280;52200;53.490;14.376;2023-02-02T02:37:17;100270.94;;;3.13;100.00
65557;BME280;52200;53.490;14.376;2023-02-02T02:39:56;100291.03;;;3.08;100.00
65557;BME280;52200;53.490;14.376;2023-02-02T02:42:29;100278.50;;;3.05;100.00
65557;BME280;52200;53.490;14.376;2023-02-02T02:45:00;100282.69;;;3.06;100.00
65557;BME280;52200;53.490;14.376;2023-02-02T02:47:29;100310.28;;;3.09;100.00
65557;BME280;52200;53.490;14.376;2023-02-02T02:49:55;100326.19;;;3.10;100.00
65557;BME280;52200;53.490;14.376;2023-02-02T02:52:20;100342.09;;;3.07;100.00
65557;BME280;52200;53.490;14.376;2023-02-02T02:54:52;100345.41;;;3.09;100.00
65557;BME280;52200;53.490;14.376;2023-02-02T03:02:34;100354.59;;;3.12;100.00
65557;BME280;52200;53.490;14.376;2023-02-02T03:05:32;100362.16;;;3.04;100.00
65557;BME280;52200;53.490;14.376;2023-02-02T03:08:07;100362.16;;;3.01;100.00
65557;BME280;52200;53.490;14.376;2023-02-02T03:10:35;100368.84;;;2.99;100.00
65557;BME280;52200;53.490;14.376;2023-02-02T03:13:07;100393.91;;;3.02;100.00
65557;BME280;52200;53.490;14.376;2023-02-02T03:15:33;100389.75;;;2.99;100.00
65557;BME280;52200;53.490;14.376;2023-02-02T03:17:59;100388.91;;;3.02;100.00
65557;BME280;52200;53.490;14.376;2023-02-02T03:20:24;100403.94;;;3.08;100.00
65557;BME280;52200;53.490;14.376;2023-02-02T03:22:50;100408.16;;;3.08;100.00
65557;BME280;52200;53.490;14.376;2023-02-02T03:25:15;100417.34;;;3.02;100.00
65557;BME280;52200;53.490;14.376;2023-02-02T03:27:41;100419.84;;;3.05;100.00
65557;BME280;52200;53.490;14.376;2023-02-02T03:30:08;100428.22;;;3.06;100.00
65557;BME280;52200;53.490;14.376;2023-02-02T03:32:36;100437.44;;;3.07;100.00
65557;BME280;52200;53.490;14.376;2023-02-02T03:35:02;100441.59;;;3.06;100.00
65557;BME280;52200;53.490;14.376;2023-02-02T03:37:27;100453.31;;;3.09;100.00
65557;BME280;52200;53.490;14.376;2023-02-02T03:39:52;100455.00;;;3.01;100.00
65557;BME280;52200;53.490;14.376;2023-02-02T03:42:18;100464.19;;;3.02;100.00
65557;BME280;52200;53.490;14.376;2023-02-02T03:44:43;100470.88;;;3.08;100.00
65557;BME280;52200;53.490;14.376;2023-02-02T03:47:08;100484.28;;;3.05;100.00
65557;BME280;52200;53.490;14.376;2023-02-02T03:49:34;100494.31;;;3.10;100.00
65557;BME280;52200;53.490;14.376;2023-02-02T03:51:59;100491.78;;;3.08;100.00
65557;BME280;52200;53.490;14.376;2023-02-02T03:54:27;100516.91;;;3.10;100.00
65557;BME280;52200;53.490;14.376;2023-02-02T03:56:52;100516.06;;;3.01;100.00
65557;BME280;52200;53.490;14.376;2023-02-02T03:59:17;100517.72;;;3.04;100.00
65557;BME280;52200;53.490;14.376;2023-02-02T04:01:43;100538.66;;;3.20;100.00
65557;BME280;52200;53.490;14.376;2023-02-02T04:04:08;100531.94;;;3.08;100.00
65557;BME280;52200;53.490;14.376;2023-02-02T04:06:33;100537.81;;;3.01;100.00
65557;BME280;52200;53.490;14.376;2023-02-02T04:08:59;100552.88;;;3.07;100.00
65557;BME280;52200;53.490;14.376;2023-02-02T04:11:24;100562.06;;;3.10;100.00
65557;BME280;52200;53.490;14.376;2023-02-02T04:13:49;100569.59;;;3.14;100.00
65557;BME280;52200;53.490;14.376;2023-02-02T04:16:15;100572.94;;;2.95;100.00
65557;BME280;52200;53.490;14.376;2023-02-02T04:18:40;100576.25;;;2.94;100.00
65557;BME280;52200;53.490;14.376;2023-02-02T04:21:06;100589.63;;;2.93;100.00
65557;BME280;52200;53.490;14.376;2023-02-02T04:23:32;100606.34;;;2.87;98.94
65557;BME280;52200;53.490;14.376;2023-02-02T04:25:58;100617.19;;;2.79;98.02
65557;BME280;52200;53.490;14.376;2023-02-02T04:28:24;100626.38;;;2.77;97.67
65557;BME280;52200;53.490;14.376;2023-02-02T04:30:52;100621.34;;;2.69;96.82
65557;BME280;52200;53.490;14.376;2023-02-02T04:33:18;100641.41;;;2.69;96.54
65557;BME280;52200;53.490;14.376;2023-02-02T04:35:43;100636.38;;;2.69;96.26
65557;BME280;52200;53.490;14.376;2023-02-02T04:38:09;100638.03;;;2.64;95.35
65557;BME280;52200;53.490;14.376;2023-02-02T04:40:41;100661.44;;;2.64;96.67
65557;BME280;52200;53.490;14.376;2023-02-02T04:43:07;100650.53;;;2.56;95.83
65557;BME280;52200;53.490;14.376;2023-02-02T04:45:32;100679.00;;;2.64;96.11
65557;BME280;52200;53.490;14.376;2023-02-02T04:47:58;100683.22;;;2.70;96.10
65557;BME280;52200;53.490;14.376;2023-02-02T04:50:23;100676.47;;;2.66;94.86
65557;BME280;52200;53.490;14.376;2023-02-02T04:52:49;100689.03;;;2.66;94.76
65557;BME280;52200;53.490;14.376;2023-02-02T04:55:14;100691.50;;;2.58;93.59
65557;BME280;52200;53.490;14.376;2023-02-02T04:57:40;100701.53;;;2.60;92.63
65557;BME280;52200;53.490;14.376;2023-02-02T05:00:06;100709.88;;;2.58;92.59
65557;BME280;52200;53.490;14.376;2023-02-02T05:02:34;100714.88;;;2.55;93.63
65557;BME280;52200;53.490;14.376;2023-02-02T05:05:00;100730.72;;;2.48;93.38
65557;BME280;52200;53.490;14.376;2023-02-02T05:07:26;100719.75;;;2.34;94.13
65557;BME280;52200;53.490;14.376;2023-02-02T05:09:51;100733.91;;;2.29;94.15
65557;BME280;52200;53.490;14.376;2023-02-02T05:12:16;100749.81;;;2.34;94.47
65557;BME280;52200;53.490;14.376;2023-02-02T05:14:42;100751.50;;;2.35;95.05
65557;BME280;52200;53.490;14.376;2023-02-02T05:17:07;100758.16;;;2.27;95.23
65557;BME280;52200;53.490;14.376;2023-02-02T05:19:32;100752.19;;;2.12;95.60
65557;BME280;52200;53.490;14.376;2023-02-02T05:21:57;100752.88;;;1.99;96.46
65557;BME280;52200;53.490;14.376;2023-02-02T05:24:23;100761.31;;;2.07;96.30
65557;BME280;52200;53.490;14.376;2023-02-02T05:26:48;100771.31;;;2.04;96.55
65557;BME280;52200;53.490;14.376;2023-02-02T05:29:13;100769.56;;;1.95;96.34
65557;BME280;52200;53.490;14.376;2023-02-02T05:31:39;100780.44;;;2.00;96.24
65557;BME280;52200;53.490;14.376;2023-02-02T05:34:04;100799.72;;;2.04;95.85
65557;BME280;52200;53.490;14.376;2023-02-02T05:36:31;100791.34;;;2.01;96.15
65557;BME280;52200;53.490;14.376;2023-02-02T05:38:56;100807.25;;;2.06;96.68
65557;BME280;52200;53.490;14.376;2023-02-02T05:41:22;100806.31;;;1.98;97.77
65557;BME280;52200;53.490;14.376;2023-02-02T05:43:47;100808.88;;;2.04;97.28
65557;BME280;52200;53.490;14.376;2023-02-02T05:46:12;100823.97;;;2.08;98.06
65557;BME280;52200;53.490;14.376;2023-02-02T05:48:38;100831.44;;;2.04;98.58
65557;BME280;52200;53.490;14.376;2023-02-02T05:51:27;100833.09;;;2.02;97.76
65557;BME280;52200;53.490;14.376;2023-02-02T05:53:53;100838.25;;;2.14;98.80
65557;BME280;52200;53.490;14.376;2023-02-02T05:56:19;100849.91;;;2.15;99.20
65557;BME280;52200;53.490;14.376;2023-02-02T05:58:44;100854.91;;;2.12;99.75
65557;BME280;52200;53.490;14.376;2023-02-02T06:01:12;100857.47;;;2.18;99.31
65557;BME280;52200;53.490;14.376;2023-02-02T06:03:38;100857.28;;;2.01;99.17
65557;BME280;52200;53.490;14.376;2023-02-02T06:06:03;100861.41;;;1.95;99.76
65557;BME280;52200;53.490;14.376;2023-02-02T06:08:29;100867.97;;;1.83;100.00
65557;BME280;52200;53.490;14.376;2023-02-02T06:10:54;100873.00;;;1.88;100.00
65557;BME280;52200;53.490;14.376;2023-02-02T06:13:20;100870.34;;;1.72;100.00
65557;BME280;52200;53.490;14.376;2023-02-02T06:15:45;100874.69;;;1.86;100.00
65557;BME280;52200;53.490;14.376;2023-02-02T06:18:11;100878.88;;;1.90;100.00
65557;BME280;52200;53.490;14.376;2023-02-02T06:20:36;100880.66;;;1.99;100.00
65557;BME280;52200;53.490;14.376;2023-02-02T06:23:02;100884.09;;;2.08;100.00
65557;BME280;52200;53.490;14.376;2023-02-02T06:25:27;100889.09;;;2.07;100.00
65557;BME280;52200;53.490;14.376;2023-02-02T06:27:56;100888.97;;;1.96;100.00
65557;BME280;52200;53.490;14.376;2023-02-02T06:30:22;100894.88;;;2.03;100.00
65557;BME280;52200;53.490;14.376;2023-02-02T06:32:47;100912.34;;;1.93;100.00
65557;BME280;52200;53.490;14.376;2023-02-02T06:35:13;100909.19;;;2.12;100.00
65557;BME280;52200;53.490;14.376;2023-02-02T06:37:38;100921.03;;;2.23;100.00
65557;BME280;52200;53.490;14.376;2023-02-02T06:40:05;100929.13;;;2.01;100.00
65557;BME280;52200;53.490;14.376;2023-02-02T06:42:31;100931.72;;;2.10;100.00
65557;BME280;52200;53.490;14.376;2023-02-02T06:44:56;100939.91;;;1.97;100.00
65557;BME280;52200;53.490;14.376;2023-02-02T06:47:21;100930.78;;;2.00;100.00
65557;BME280;52200;53.490;14.376;2023-02-02T06:49:47;100931.34;;;1.76;100.00
65557;BME280;52200;53.490;14.376;2023-02-02T06:52:12;100943.94;;;1.82;100.00
65557;BME280;52200;53.490;14.376;2023-02-02T06:54:37;100946.53;;;1.91;100.00
65557;BME280;52200;53.490;14.376;2023-02-02T06:57:03;100943.06;;;1.80;100.00
65557;BME280;52200;53.490;14.376;2023-02-02T06:59:28;100952.50;;;2.00;100.00
65557;BME280;52200;53.490;14.376;2023-02-02T07:01:53;100954.84;;;1.86;100.00
65557;BME280;52200;53.490;14.376;2023-02-02T07:04:19;100957.44;;;1.95;100.00
65557;BME280;52200;53.490;14.376;2023-02-02T07:06:44;100976.75;;;2.02;100.00
65557;BME280;52200;53.490;14.376;2023-02-02T07:09:10;100972.38;;;1.87;100.00
65557;BME280;52200;53.490;14.376;2023-02-02T07:11:35;100979.91;;;1.87;100.00
65557;BME280;52200;53.490;14.376;2023-02-02T07:14:01;100982.41;;;1.89;100.00
65557;BME280;52200;53.490;14.376;2023-02-02T07:16:27;100981.53;;;1.85;100.00
65557;BME280;52200;53.490;14.376;2023-02-02T07:18:52;100988.13;;;1.80;99.03
65557;BME280;52200;53.490;14.376;2023-02-02T07:21:22;100999.13;;;1.88;98.93
65557;BME280;52200;53.490;14.376;2023-02-02T07:23:48;101008.25;;;1.86;99.06
65557;BME280;52200;53.490;14.376;2023-02-02T07:26:15;101014.94;;;1.86;97.79
65557;BME280;52200;53.490;14.376;2023-02-02T07:28:42;101020.81;;;1.88;97.15
65557;BME280;52200;53.490;14.376;2023-02-02T07:31:13;101022.41;;;1.83;97.54
65557;BME280;52200;53.490;14.376;2023-02-02T07:33:40;101022.41;;;1.84;97.30
65557;BME280;52200;53.490;14.376;2023-02-02T07:36:06;101026.06;;;2.05;96.27
65557;BME280;52200;53.490;14.376;2023-02-02T07:38:31;101026.13;;;2.11;96.59
65557;BME280;52200;53.490;14.376;2023-02-02T07:40:59;101040.13;;;1.97;95.74
65557;BME280;52200;53.490;14.376;2023-02-02T07:43:25;101038.41;;;1.92;95.15
65557;BME280;52200;53.490;14.376;2023-02-02T07:45:50;101048.44;;;1.92;94.82
65557;BME280;52200;53.490;14.376;2023-02-02T07:48:15;101048.50;;;1.99;95.26
65557;BME280;52200;53.490;14.376;2023-02-02T07:50:41;101057.66;;;1.97;94.74
65557;BME280;52200;53.490;14.376;2023-02-02T07:53:06;101061.84;;;1.95;93.21
65557;BME280;52200;53.490;14.376;2023-02-02T07:55:31;101061.03;;;1.99;93.69
65557;BME280;52200;53.490;14.376;2023-02-02T07:57:57;101070.28;;;2.03;93.20
65557;BME280;52200;53.490;14.376;2023-02-02T08:00:23;101071.28;;;2.14;93.97
65557;BME280;52200;53.490;14.376;2023-02-02T08:02:49;101072.28;;;2.25;94.13
65557;BME280;52200;53.490;14.376;2023-02-02T08:05:14;101080.59;;;2.24;92.90
65557;BME280;52200;53.490;14.376;2023-02-02T08:07:40;101090.56;;;2.18;93.44
65557;BME280;52200;53.490;14.376;2023-02-02T08:10:05;101091.50;;;2.27;92.83
65557;BME280;52200;53.490;14.376;2023-02-02T08:12:31;101098.84;;;2.14;93.37
65557;BME280;52200;53.490;14.376;2023-02-02T08:14:56;101103.19;;;2.28;93.53
65557;BME280;52200;53.490;14.376;2023-02-02T08:17:23;101108.91;;;2.17;92.67
65557;BME280;52200;53.490;14.376;2023-02-02T08:19:48;101112.34;;;2.24;92.21
65557;BME280;52200;53.490;14.376;2023-02-02T08:22:14;101119.16;;;2.33;92.54
65557;BME280;52200;53.490;14.376;2023-02-02T08:24:39;101117.34;;;2.24;92.37
65557;BME280;52200;53.490;14.376;2023-02-02T08:27:07;101141.59;;;2.25;92.20
65557;BME280;52200;53.490;14.376;2023-02-02T08:29:33;101135.66;;;2.18;92.75
65557;BME280;52200;53.490;14.376;2023-02-02T08:31:59;101129.16;;;2.31;92.23
65557;BME280;52200;53.490;14.376;2023-02-02T08:34:25;101138.09;;;2.15;89.77
65557;BME280;52200;53.490;14.376;2023-02-02T08:36:57;101139.88;;;2.19;90.18
65557;BME280;52200;53.490;14.376;2023-02-02T08:39:22;101134.97;;;2.29;91.41
65557;BME280;52200;53.490;14.376;2023-02-02T08:41:48;101143.50;;;2.41;89.33
65557;BME280;52200;53.490;14.376;2023-02-02T08:44:14;101148.66;;;2.52;89.21
65557;BME280;52200;53.490;14.376;2023-02-02T08:46:40;101151.94;;;2.47;89.80
65557;BME280;52200;53.490;14.376;2023-02-02T08:49:09;101153.66;;;2.49;88.53
65557;BME280;52200;53.490;14.376;2023-02-02T08:51:34;101161.09;;;2.46;89.58
65557;BME280;52200;53.490;14.376;2023-02-02T08:53:59;101165.53;;;2.63;88.79
65557;BME280;52200;53.490;14.376;2023-02-02T08:56:25;101167.25;;;2.67;88.87
65557;BME280;52200;53.490;14.376;2023-02-02T08:58:52;101177.09;;;2.51;88.03
65557;BME280;52200;53.490;14.376;2023-02-02T09:01:24;101181.34;;;2.58;86.45
65557;BME280;52200;53.490;14.376;2023-02-02T09:04:06;101179.63;;;2.56;86.31
65557;BME280;52200;53.490;14.376;2023-02-02T09:06:34;101183.13;;;2.66;85.61
65557;BME280;52200;53.490;14.376;2023-02-02T09:09:00;101189.81;;;2.67;84.21
65557;BME280;52200;53.490;14.376;2023-02-02T09:11:26;101199.81;;;2.64;85.15
65557;BME280;52200;53.490;14.376;2023-02-02T09:13:57;101193.69;;;2.45;83.81
65557;BME280;52200;53.490;14.376;2023-02-02T09:16:24;101202.19;;;2.53;83.74
65557;BME280;52200;53.490;14.376;2023-02-02T09:18:49;101192.88;;;2.47;82.77
65557;BME280;52200;53.490;14.376;2023-02-02T09:21:17;101207.09;;;2.45;82.61
65557;BME280;52200;53.490;14.376;2023-02-02T09:23:44;101209.72;;;2.54;83.02
65557;BME280;52200;53.490;14.376;2023-02-02T09:26:23;101220.38;;;2.41;81.91
65557;BME280;52200;53.490;14.376;2023-02-02T09:28:55;101228.91;;;2.52;82.45
65557;BME280;52200;53.490;14.376;2023-02-02T09:31:21;101244.88;;;2.57;81.57
65557;BME280;52200;53.490;14.376;2023-02-02T09:33:47;101236.69;;;2.71;80.40
65557;BME280;52200;53.490;14.376;2023-02-02T09:36:18;101246.38;;;3.06;80.52
65557;BME280;52200;53.490;14.376;2023-02-02T09:38:47;101247.19;;;3.05;78.94
65557;BME280;52200;53.490;14.376;2023-02-02T09:41:18;101256.31;;;2.98;79.12
65557;BME280;52200;53.490;14.376;2023-02-02T09:43:55;101253.09;;;3.07;79.65
65557;BME280;52200;53.490;14.376;2023-02-02T09:49:22;101268.81;;;2.94;78.54
65557;BME280;52200;53.490;14.376;2023-02-02T09:51:57;101266.22;;;2.89;78.45
65557;BME280;52200;53.490;14.376;2023-02-02T09:54:27;101278.69;;;2.84;79.34
65557;BME280;52200;53.490;14.376;2023-02-02T09:56:55;101284.34;;;2.71;79.28
65557;BME280;52200;53.490;14.376;2023-02-02T09:59:27;101283.59;;;2.73;79.01
65557;BME280;52200;53.490;14.376;2023-02-02T10:01:57;101288.47;;;2.66;80.10
65557;BME280;52200;53.490;14.376;2023-02-02T10:04:36;101305.19;;;2.67;80.80
65557;BME280;52200;53.490;14.376;2023-02-02T10:07:08;101299.47;;;2.74;80.30
65557;BME280;52200;53.490;14.376;2023-02-02T10:10:02;101303.59;;;2.72;80.33
65557;BME280;52200;53.490;14.376;2023-02-02T10:18:01;101330.44;;;2.76;81.58
65557;BME280;52200;53.490;14.376;2023-02-02T10:23:26;101345.19;;;2.57;81.71
65557;BME280;52200;53.490;14.376;2023-02-02T10:26:08;101352.56;;;2.50;81.32
65557;BME280;52200;53.490;14.376;2023-02-02T10:29:11;101350.56;;;2.30;81.84
65557;BME280;52200;53.490;14.376;2023-02-02T10:32:04;101357.59;;;2.50;82.44
65557;BME280;52200;53.490;14.376;2023-02-02T10:45:41;101374.81;;;2.30;82.45
65557;BME280;52200;53.490;14.376;2023-02-02T10:48:19;101384.16;;;2.40;83.00
65557;BME280;52200;53.490;14.376;2023-02-02T10:50:52;101385.72;;;2.32;83.33
65557;BME280;52200;53.490;14.376;2023-02-02T10:53:19;101383.03;;;2.22;83.46
65557;BME280;52200;53.490;14.376;2023-02-02T10:55:51;101392.13;;;2.17;82.91
65557;BME280;52200;53.490;14.376;2023-02-02T11:01:12;101392.84;;;2.57;81.71
65557;BME280;52200;53.490;14.376;2023-02-02T11:03:42;101399.72;;;2.69;81.43
65557;BME280;52200;53.490;14.376;2023-02-02T11:06:10;101401.19;;;3.07;81.50
65557;BME280;52200;53.490;14.376;2023-02-02T11:08:56;101418.44;;;3.45;80.47
65557;BME280;52200;53.490;14.376;2023-02-02T11:11:31;101418.50;;;3.48;78.03
65557;BME280;52200;53.490;14.376;2023-02-02T11:16:30;101429.09;;;3.27;79.65
65557;BME280;52200;53.490;14.376;2023-02-02T11:18:56;101433.31;;;3.30;79.02
65557;BME280;52200;53.490;14.376;2023-02-02T11:23:56;101444.56;;;3.00;76.41
65557;BME280;52200;53.490;14.376;2023-02-02T11:26:24;101442.84;;;2.97;76.25
65557;BME280;52200;53.490;14.376;2023-02-02T11:28:52;101451.34;;;3.05;76.21
65557;BME280;52200;53.490;14.376;2023-02-02T11:31:35;101455.59;;;3.10;76.42
65557;BME280;52200;53.490;14.376;2023-02-02T11:34:17;101453.81;;;3.02;74.76
65557;BME280;52200;53.490;14.376;2023-02-02T11:39:41;101456.09;;;3.42;74.08
65557;BME280;52200;53.490;14.376;2023-02-02T11:42:12;101474.28;;;3.29;73.92
65557;BME280;52200;53.490;14.376;2023-02-02T11:44:43;101473.50;;;3.33;74.58
65557;BME280;52200;53.490;14.376;2023-02-02T11:47:21;101479.59;;;3.47;74.17
65557;BME280;52200;53.490;14.376;2023-02-02T11:49:50;101473.84;;;3.54;73.82
65557;BME280;52200;53.490;14.376;2023-02-02T11:52:21;101468.28;;;3.77;73.38
65557;BME280;52200;53.490;14.376;2023-02-02T11:54:57;101476.28;;;3.48;74.03
65557;BME280;52200;53.490;14.376;2023-02-02T11:57:25;101474.91;;;3.15;72.32
65557;BME280;52200;53.490;14.376;2023-02-02T12:00:15;101484.94;;;3.12;73.50
65557;BME280;52200;53.490;14.376;2023-02-02T12:02:48;101483.03;;;3.52;74.37
65557;BME280;52200;53.490;14.376;2023-02-02T12:05:32;101489.16;;;3.71;72.55
65557;BME280;52200;53.490;14.376;2023-02-02T12:07:58;101496.91;;;3.85;73.14
65557;BME280;52200;53.490;14.376;2023-02-02T12:13:25;101503.69;;;3.91;70.73
65557;BME280;52200;53.490;14.376;2023-02-02T12:16:16;101509.28;;;3.73;71.14
65557;BME280;52200;53.490;14.376;2023-02-02T12:24:33;101518.41;;;3.66;71.69
65557;BME280;52200;53.490;14.376;2023-02-02T12:29:50;101526.78;;;3.65;70.66
65557;BME280;52200;53.490;14.376;2023-02-02T12:32:25;101534.25;;;3.62;70.86
65557;BME280;52200;53.490;14.376;2023-02-02T12:35:27;101535.69;;;3.46;70.12
65557;BME280;52200;53.490;14.376;2023-02-02T12:38:27;101548.22;;;3.45;71.97
65557;BME280;52200;53.490;14.376;2023-02-02T12:43:46;101547.88;;;3.75;71.62
65557;BME280;52200;53.490;14.376;2023-02-02T12:51:42;101566.16;;;3.66;70.89
65557;BME280;52200;53.490;14.376;2023-02-02T12:57:04;101582.34;;;3.32;71.38
65557;BME280;52200;53.490;14.376;2023-02-02T13:02:30;101584.19;;;3.44;70.21
65557;BME280;52200;53.490;14.376;2023-02-02T13:05:39;101599.06;;;3.33;69.92
65557;BME280;52200;53.490;14.376;2023-02-02T13:08:11;101600.31;;;3.08;69.88
65557;BME280;52200;53.490;14.376;2023-02-02T13:10:52;101602.69;;;3.00;69.65
65557;BME280;52200;53.490;14.376;2023-02-02T13:13:22;101604.03;;;2.82;70.01
65557;BME280;52200;53.490;14.376;2023-02-02T13:15:57;101604.06;;;2.85;69.73
65557;BME280;52200;53.490;14.376;2023-02-02T13:18:35;101609.34;;;2.99;70.25
65557;BME280;52200;53.490;14.376;2023-02-02T13:21:10;101608.63;;;3.05;68.30
65557;BME280;52200;53.490;14.376;2023-02-02T13:23:40;101610.56;;;3.18;68.92
65557;BME280;52200;53.490;14.376;2023-02-02T13:26:16;101619.13;;;3.30;70.24
65557;BME280;52200;53.490;14.376;2023-02-02T13:28:52;101617.56;;;3.36;69.50
65557;BME280;52200;53.490;14.376;2023-02-02T13:31:27;101625.75;;;3.25;69.84
65557;BME280;52200;53.490;14.376;2023-02-02T13:34:05;101635.91;;;3.32;71.64
65557;BME280;52200;53.490;14.376;2023-02-02T13:36:39;101628.41;;;3.34;69.50
65557;BME280;52200;53.490;14.376;2023-02-02T13:39:27;101631.94;;;3.45;70.34
65557;BME280;52200;53.490;14.376;2023-02-02T13:41:57;101638.44;;;3.32;70.00
65557;BME280;52200;53.490;14.376;2023-02-02T13:44:31;101641.63;;;3.25;71.17
65557;BME280;52200;53.490;14.376;2023-02-02T13:47:08;101657.34;;;3.13;71.07
65557;BME280;52200;53.490;14.376;2023-02-02T13:49:40;101668.63;;;2.93;72.17
65557;BME280;52200;53.490;14.376;2023-02-02T14:00:16;101682.78;;;2.49;73.19
65557;BME280;52200;53.490;14.376;2023-02-02T14:02:46;101697.09;;;2.55;73.47
65557;BME280;52200;53.490;14.376;2023-02-02T14:05:39;101696.97;;;2.49;72.86
65557;BME280;52200;53.490;14.376;2023-02-02T14:08:20;101701.22;;;2.51;73.25
65557;BME280;52200;53.490;14.376;2023-02-02T14:13:23;101707.13;;;2.55;73.78
65557;BME280;52200;53.490;14.376;2023-02-02T14:16:22;101702.16;;;2.56;72.82
65557;BME280;52200;53.490;14.376;2023-02-02T14:24:01;101715.91;;;2.72;73.25
65557;BME280;52200;53.490;14.376;2023-02-02T14:26:47;101721.88;;;2.79;73.32
65557;BME280;52200;53.490;14.376;2023-02-02T14:34:44;101740.31;;;2.80;73.11
65557;BME280;52200;53.490;14.376;2023-02-02T14:39:58;101743.09;;;2.55;74.13
65557;BME280;52200;53.490;14.376;2023-02-02T14:48:45;101777.41;;;2.21;74.74